This is the latest recevied weather packets stored in our database for station/object DL9GRB-13. If no packets are shown the sender has not sent any weather packets the latest 10 day(s).
| Time | Temp. | Humidity | Pressure | Rain* | Wind** | Luminosity | Snow |
|---|---|---|---|---|---|---|---|
| 1777623366 | 18.89° C | 52% | 1028.6 hPa | 0 mm | - | 480 W/m² | - |
| 1777623186 | 18.89° C | 51% | 1028.7 hPa | 0 mm | - | 472 W/m² | - |
| 1777623006 | 19.44° C | 46% | 1028.6 hPa | 0 mm | - | 462 W/m² | - |
| 1777622826 | 19.44° C | 48% | 1028.5 hPa | 0 mm | - | 448 W/m² | - |
| 1777622646 | 19.44° C | 48% | 1028.6 hPa | 0 mm | - | 426 W/m² | - |
| 1777622466 | 19.44° C | 46% | 1028.4 hPa | 0 mm | - | 374 W/m² | - |
| 1777622286 | 18.89° C | 47% | 1028.6 hPa | 0 mm | - | 244 W/m² | - |
| 1777622106 | 18.89° C | 50% | 1028.7 hPa | 0 mm | - | 227 W/m² | - |
| 1777621926 | 18.89° C | 50% | 1028.5 hPa | 0 mm | - | 343 W/m² | - |
| 1777621746 | 18.89° C | 48% | 1028.5 hPa | 0 mm | - | 394 W/m² | - |
| 1777621566 | 18.89° C | 50% | 1028.4 hPa | 0 mm | - | 407 W/m² | - |
| 1777621206 | 18.33° C | 52% | 1028.5 hPa | 0 mm | - | 403 W/m² | - |
| 1777621026 | 18.33° C | 51% | 1028.5 hPa | 0 mm | - | 398 W/m² | - |
| 1777620846 | 18.89° C | 50% | 1028.7 hPa | 0 mm | - | 392 W/m² | - |
| 1777620666 | 18.89° C | 50% | 1028.5 hPa | 0 mm | - | 387 W/m² | - |
| 1777620486 | 17.78° C | 53% | 1028.4 hPa | 0 mm | - | 382 W/m² | - |
| 1777620306 | 17.78° C | 52% | 1028.5 hPa | 0 mm | - | 375 W/m² | - |
| 1777620126 | 17.78° C | 52% | 1028.4 hPa | 0 mm | - | 369 W/m² | - |
| 1777619946 | 17.78° C | 52% | 1028.6 hPa | 0 mm | - | 363 W/m² | - |
| 1777619766 | 18.33° C | 52% | 1028.4 hPa | 0 mm | - | 355 W/m² | - |
| 1777619586 | 17.78° C | 53% | 1028.4 hPa | 0 mm | - | 350 W/m² | - |
| 1777619406 | 17.78° C | 54% | 1028.4 hPa | 0 mm | - | 341 W/m² | - |
| 1777619226 | 17.22° C | 54% | 1028.4 hPa | 0 mm | - | 334 W/m² | - |
| 1777619046 | 17.22° C | 55% | 1028.7 hPa | 0 mm | - | 326 W/m² | - |
| 1777618866 | 16.67° C | 56% | 1028.6 hPa | 0 mm | - | 319 W/m² | - |
* Rain latest hour (hover to see other rain measurements)
** Current wind speed in m/s (hover to see current wind gust speed)